sensor_id;sensor_type;location;lat;lon;timestamp;P1;durP1;ratioP1;P2;durP2;ratioP2
3217;SDS011;1621;49.702;8.618;2023-04-30T00:01:52;11.90;;;10.37;;
3217;SDS011;1621;49.702;8.618;2023-04-30T00:04:19;12.50;;;9.33;;
3217;SDS011;1621;49.702;8.618;2023-04-30T00:06:45;12.43;;;9.87;;
3217;SDS011;1621;49.702;8.618;2023-04-30T00:09:11;11.40;;;9.47;;
3217;SDS011;1621;49.702;8.618;2023-04-30T00:11:39;12.00;;;9.63;;
3217;SDS011;1621;49.702;8.618;2023-04-30T00:14:05;11.00;;;9.30;;
3217;SDS011;1621;49.702;8.618;2023-04-30T00:16:31;11.57;;;9.87;;
3217;SDS011;1621;49.702;8.618;2023-04-30T00:18:57;13.57;;;10.40;;
3217;SDS011;1621;49.702;8.618;2023-04-30T00:21:24;13.47;;;10.37;;
3217;SDS011;1621;49.702;8.618;2023-04-30T00:23:50;12.10;;;10.17;;
3217;SDS011;1621;49.702;8.618;2023-04-30T00:26:16;14.33;;;10.40;;
3217;SDS011;1621;49.702;8.618;2023-04-30T00:28:44;12.30;;;10.30;;
3217;SDS011;1621;49.702;8.618;2023-04-30T00:31:10;12.87;;;10.90;;
3217;SDS011;1621;49.702;8.618;2023-04-30T00:33:36;14.50;;;10.80;;
3217;SDS011;1621;49.702;8.618;2023-04-30T00:36:03;11.90;;;10.60;;
3217;SDS011;1621;49.702;8.618;2023-04-30T00:38:29;11.23;;;10.00;;
3217;SDS011;1621;49.702;8.618;2023-04-30T00:40:55;11.90;;;10.07;;
3217;SDS011;1621;49.702;8.618;2023-04-30T00:43:21;13.27;;;10.23;;
3217;SDS011;1621;49.702;8.618;2023-04-30T00:45:49;13.47;;;10.87;;
3217;SDS011;1621;49.702;8.618;2023-04-30T00:48:15;14.83;;;10.80;;
3217;SDS011;1621;49.702;8.618;2023-04-30T00:50:41;11.83;;;10.03;;
3217;SDS011;1621;49.702;8.618;2023-04-30T00:53:09;13.00;;;9.90;;
3217;SDS011;1621;49.702;8.618;2023-04-30T00:55:35;13.97;;;10.57;;
3217;SDS011;1621;49.702;8.618;2023-04-30T00:58:01;11.57;;;10.37;;
3217;SDS011;1621;49.702;8.618;2023-04-30T01:00:28;12.47;;;10.70;;
3217;SDS011;1621;49.702;8.618;2023-04-30T01:02:56;14.27;;;11.13;;
3217;SDS011;1621;49.702;8.618;2023-04-30T01:05:22;12.90;;;10.40;;
3217;SDS011;1621;49.702;8.618;2023-04-30T01:07:49;13.20;;;11.33;;
3217;SDS011;1621;49.702;8.618;2023-04-30T01:10:16;12.70;;;11.40;;
3217;SDS011;1621;49.702;8.618;2023-04-30T01:12:43;15.03;;;11.43;;
3217;SDS011;1621;49.702;8.618;2023-04-30T01:15:13;13.90;;;11.33;;
3217;SDS011;1621;49.702;8.618;2023-04-30T01:17:44;13.50;;;11.63;;
3217;SDS011;1621;49.702;8.618;2023-04-30T01:20:13;14.50;;;11.73;;
3217;SDS011;1621;49.702;8.618;2023-04-30T01:22:43;14.90;;;10.97;;
3217;SDS011;1621;49.702;8.618;2023-04-30T01:25:13;12.43;;;10.83;;
3217;SDS011;1621;49.702;8.618;2023-04-30T01:30:31;14.83;;;11.27;;
3217;SDS011;1621;49.702;8.618;2023-04-30T01:32:58;13.43;;;11.07;;
3217;SDS011;1621;49.702;8.618;2023-04-30T01:35:27;13.77;;;11.50;;
3217;SDS011;1621;49.702;8.618;2023-04-30T01:38:03;13.50;;;10.60;;
3217;SDS011;1621;49.702;8.618;2023-04-30T01:40:33;12.53;;;10.73;;
3217;SDS011;1621;49.702;8.618;2023-04-30T01:43:04;13.07;;;11.27;;
3217;SDS011;1621;49.702;8.618;2023-04-30T01:45:39;15.23;;;12.00;;
3217;SDS011;1621;49.702;8.618;2023-04-30T01:48:07;14.37;;;11.40;;
3217;SDS011;1621;49.702;8.618;2023-04-30T01:50:41;15.83;;;11.70;;
3217;SDS011;1621;49.702;8.618;2023-04-30T01:53:09;14.13;;;11.33;;
3217;SDS011;1621;49.702;8.618;2023-04-30T01:55:40;14.97;;;12.00;;
3217;SDS011;1621;49.702;8.618;2023-04-30T01:58:08;14.30;;;12.40;;
3217;SDS011;1621;49.702;8.618;2023-04-30T02:00:35;14.90;;;11.73;;
3217;SDS011;1621;49.702;8.618;2023-04-30T02:03:02;13.17;;;10.77;;
3217;SDS011;1621;49.702;8.618;2023-04-30T02:05:29;13.50;;;11.77;;
3217;SDS011;1621;49.702;8.618;2023-04-30T02:07:55;15.57;;;12.90;;
3217;SDS011;1621;49.702;8.618;2023-04-30T02:10:22;13.00;;;11.60;;
3217;SDS011;1621;49.702;8.618;2023-04-30T02:12:49;16.37;;;11.73;;
3217;SDS011;1621;49.702;8.618;2023-04-30T02:15:15;14.07;;;11.83;;
3217;SDS011;1621;49.702;8.618;2023-04-30T02:17:42;13.67;;;11.77;;
3217;SDS011;1621;49.702;8.618;2023-04-30T02:20:10;15.03;;;12.37;;
3217;SDS011;1621;49.702;8.618;2023-04-30T02:22:36;15.60;;;13.10;;
3217;SDS011;1621;49.702;8.618;2023-04-30T02:25:03;16.53;;;12.90;;
3217;SDS011;1621;49.702;8.618;2023-04-30T02:27:30;17.90;;;13.00;;
3217;SDS011;1621;49.702;8.618;2023-04-30T02:29:56;14.33;;;12.00;;
3217;SDS011;1621;49.702;8.618;2023-04-30T02:32:23;17.10;;;12.90;;
3217;SDS011;1621;49.702;8.618;2023-04-30T02:34:50;15.33;;;12.13;;
3217;SDS011;1621;49.702;8.618;2023-04-30T02:37:17;16.30;;;12.60;;
3217;SDS011;1621;49.702;8.618;2023-04-30T02:39:44;15.23;;;13.27;;
3217;SDS011;1621;49.702;8.618;2023-04-30T02:42:10;15.87;;;13.20;;
3217;SDS011;1621;49.702;8.618;2023-04-30T02:44:36;15.67;;;13.43;;
3217;SDS011;1621;49.702;8.618;2023-04-30T02:47:02;15.23;;;12.70;;
3217;SDS011;1621;49.702;8.618;2023-04-30T02:49:29;18.83;;;13.20;;
3217;SDS011;1621;49.702;8.618;2023-04-30T02:51:55;15.57;;;12.97;;
3217;SDS011;1621;49.702;8.618;2023-04-30T02:54:22;14.83;;;12.40;;
3217;SDS011;1621;49.702;8.618;2023-04-30T02:56:49;17.77;;;13.90;;
3217;SDS011;1621;49.702;8.618;2023-04-30T02:59:15;16.73;;;14.20;;
3217;SDS011;1621;49.702;8.618;2023-04-30T03:01:41;16.07;;;13.53;;
3217;SDS011;1621;49.702;8.618;2023-04-30T03:04:07;18.67;;;13.70;;
3217;SDS011;1621;49.702;8.618;2023-04-30T03:06:33;15.57;;;13.70;;
3217;SDS011;1621;49.702;8.618;2023-04-30T03:09:00;15.40;;;13.57;;
3217;SDS011;1621;49.702;8.618;2023-04-30T03:11:27;18.63;;;13.43;;
3217;SDS011;1621;49.702;8.618;2023-04-30T03:13:54;18.00;;;15.10;;
3217;SDS011;1621;49.702;8.618;2023-04-30T03:16:20;14.77;;;13.17;;
3217;SDS011;1621;49.702;8.618;2023-04-30T03:18:47;19.97;;;13.47;;
3217;SDS011;1621;49.702;8.618;2023-04-30T03:21:13;14.37;;;12.87;;
3217;SDS011;1621;49.702;8.618;2023-04-30T03:23:40;15.20;;;13.30;;
3217;SDS011;1621;49.702;8.618;2023-04-30T03:26:06;19.40;;;13.97;;
3217;SDS011;1621;49.702;8.618;2023-04-30T03:28:34;19.53;;;13.97;;
3217;SDS011;1621;49.702;8.618;2023-04-30T03:31:00;18.13;;;13.80;;
3217;SDS011;1621;49.702;8.618;2023-04-30T03:33:29;16.43;;;13.70;;
3217;SDS011;1621;49.702;8.618;2023-04-30T03:35:55;17.47;;;14.37;;
3217;SDS011;1621;49.702;8.618;2023-04-30T03:38:21;15.87;;;13.37;;
3217;SDS011;1621;49.702;8.618;2023-04-30T03:40:47;18.30;;;14.00;;
3217;SDS011;1621;49.702;8.618;2023-04-30T03:43:14;15.87;;;14.20;;
3217;SDS011;1621;49.702;8.618;2023-04-30T03:45:41;16.60;;;14.10;;
3217;SDS011;1621;49.702;8.618;2023-04-30T03:48:08;15.73;;;14.00;;
3217;SDS011;1621;49.702;8.618;2023-04-30T03:50:34;16.53;;;11.90;;
3217;SDS011;1621;49.702;8.618;2023-04-30T03:53:00;16.47;;;13.63;;
3217;SDS011;1621;49.702;8.618;2023-04-30T03:55:26;18.63;;;12.77;;
3217;SDS011;1621;49.702;8.618;2023-04-30T03:57:53;15.70;;;13.80;;
3217;SDS011;1621;49.702;8.618;2023-04-30T04:00:19;17.07;;;14.23;;
3217;SDS011;1621;49.702;8.618;2023-04-30T04:02:47;13.30;;;11.90;;
3217;SDS011;1621;49.702;8.618;2023-04-30T04:05:13;13.73;;;12.23;;
3217;SDS011;1621;49.702;8.618;2023-04-30T04:07:39;16.40;;;12.60;;
3217;SDS011;1621;49.702;8.618;2023-04-30T04:10:06;15.00;;;12.37;;
3217;SDS011;1621;49.702;8.618;2023-04-30T04:12:33;14.07;;;12.40;;
3217;SDS011;1621;49.702;8.618;2023-04-30T04:14:59;13.00;;;11.60;;
3217;SDS011;1621;49.702;8.618;2023-04-30T04:17:25;14.37;;;11.50;;
3217;SDS011;1621;49.702;8.618;2023-04-30T04:19:53;14.17;;;11.57;;
3217;SDS011;1621;49.702;8.618;2023-04-30T04:22:19;13.73;;;11.80;;
3217;SDS011;1621;49.702;8.618;2023-04-30T04:24:45;15.83;;;12.10;;
3217;SDS011;1621;49.702;8.618;2023-04-30T04:27:11;12.83;;;11.17;;
3217;SDS011;1621;49.702;8.618;2023-04-30T04:29:38;12.87;;;11.53;;
3217;SDS011;1621;49.702;8.618;2023-04-30T04:32:04;13.70;;;11.17;;
3217;SDS011;1621;49.702;8.618;2023-04-30T04:34:31;12.27;;;10.27;;
3217;SDS011;1621;49.702;8.618;2023-04-30T04:36:58;11.33;;;9.63;;
3217;SDS011;1621;49.702;8.618;2023-04-30T04:39:25;12.73;;;10.17;;
3217;SDS011;1621;49.702;8.618;2023-04-30T04:41:51;12.20;;;10.83;;
3217;SDS011;1621;49.702;8.618;2023-04-30T04:44:18;13.43;;;9.63;;
3217;SDS011;1621;49.702;8.618;2023-04-30T04:46:44;11.83;;;10.57;;
3217;SDS011;1621;49.702;8.618;2023-04-30T04:49:10;27.50;;;11.00;;
3217;SDS011;1621;49.702;8.618;2023-04-30T04:51:37;12.13;;;10.10;;
3217;SDS011;1621;49.702;8.618;2023-04-30T04:54:05;12.60;;;10.70;;
3217;SDS011;1621;49.702;8.618;2023-04-30T04:56:31;15.00;;;10.60;;
3217;SDS011;1621;49.702;8.618;2023-04-30T04:58:58;11.77;;;10.47;;
3217;SDS011;1621;49.702;8.618;2023-04-30T05:01:24;12.30;;;9.93;;
3217;SDS011;1621;49.702;8.618;2023-04-30T05:03:50;12.83;;;10.70;;
3217;SDS011;1621;49.702;8.618;2023-04-30T05:06:17;12.63;;;10.23;;
3217;SDS011;1621;49.702;8.618;2023-04-30T05:08:43;13.17;;;11.40;;
3217;SDS011;1621;49.702;8.618;2023-04-30T05:11:11;11.90;;;9.70;;
3217;SDS011;1621;49.702;8.618;2023-04-30T05:13:37;13.33;;;10.10;;
3217;SDS011;1621;49.702;8.618;2023-04-30T05:16:04;11.73;;;10.53;;
3217;SDS011;1621;49.702;8.618;2023-04-30T05:18:30;11.20;;;9.67;;
3217;SDS011;1621;49.702;8.618;2023-04-30T05:20:56;13.30;;;10.37;;
3217;SDS011;1621;49.702;8.618;2023-04-30T05:23:22;12.77;;;10.13;;
3217;SDS011;1621;49.702;8.618;2023-04-30T05:25:50;11.97;;;9.67;;
3217;SDS011;1621;49.702;8.618;2023-04-30T05:28:18;10.40;;;8.93;;
3217;SDS011;1621;49.702;8.618;2023-04-30T05:30:44;11.97;;;9.70;;
3217;SDS011;1621;49.702;8.618;2023-04-30T05:33:10;13.80;;;10.20;;
3217;SDS011;1621;49.702;8.618;2023-04-30T05:35:36;11.80;;;9.30;;
3217;SDS011;1621;49.702;8.618;2023-04-30T05:38:03;11.30;;;10.00;;
3217;SDS011;1621;49.702;8.618;2023-04-30T05:40:29;10.50;;;9.27;;
3217;SDS011;1621;49.702;8.618;2023-04-30T05:42:55;10.70;;;9.60;;
3217;SDS011;1621;49.702;8.618;2023-04-30T05:45:23;12.87;;;9.87;;
3217;SDS011;1621;49.702;8.618;2023-04-30T05:47:49;11.73;;;9.37;;
3217;SDS011;1621;49.702;8.618;2023-04-30T05:50:16;12.00;;;9.23;;
3217;SDS011;1621;49.702;8.618;2023-04-30T05:52:42;10.90;;;9.40;;
3217;SDS011;1621;49.702;8.618;2023-04-30T05:55:08;10.47;;;8.90;;
3217;SDS011;1621;49.702;8.618;2023-04-30T05:57:35;10.63;;;9.23;;
3217;SDS011;1621;49.702;8.618;2023-04-30T06:00:01;10.43;;;9.20;;
3217;SDS011;1621;49.702;8.618;2023-04-30T06:02:31;10.47;;;9.23;;
3217;SDS011;1621;49.702;8.618;2023-04-30T06:04:58;11.23;;;9.50;;
3217;SDS011;1621;49.702;8.618;2023-04-30T06:07:25;12.53;;;9.83;;
3217;SDS011;1621;49.702;8.618;2023-04-30T06:09:52;10.67;;;9.33;;
3217;SDS011;1621;49.702;8.618;2023-04-30T06:12:18;12.90;;;9.80;;
3217;SDS011;1621;49.702;8.618;2023-04-30T06:14:45;12.97;;;9.27;;
3217;SDS011;1621;49.702;8.618;2023-04-30T06:17:11;11.90;;;8.30;;
3217;SDS011;1621;49.702;8.618;2023-04-30T06:19:39;11.50;;;9.63;;
3217;SDS011;1621;49.702;8.618;2023-04-30T06:22:05;10.90;;;8.93;;
3217;SDS011;1621;49.702;8.618;2023-04-30T06:24:31;9.63;;;8.03;;
3217;SDS011;1621;49.702;8.618;2023-04-30T06:26:57;10.97;;;8.70;;
3217;SDS011;1621;49.702;8.618;2023-04-30T06:29:24;10.30;;;8.37;;
3217;SDS011;1621;49.702;8.618;2023-04-30T06:31:50;9.73;;;8.00;;
3217;SDS011;1621;49.702;8.618;2023-04-30T06:34:17;11.80;;;9.20;;
3217;SDS011;1621;49.702;8.618;2023-04-30T06:36:45;10.80;;;8.70;;
3217;SDS011;1621;49.702;8.618;2023-04-30T06:39:12;12.20;;;8.73;;
3217;SDS011;1621;49.702;8.618;2023-04-30T06:41:39;12.03;;;9.30;;
3217;SDS011;1621;49.702;8.618;2023-04-30T06:44:05;9.57;;;8.03;;
3217;SDS011;1621;49.702;8.618;2023-04-30T06:46:31;10.10;;;8.27;;
3217;SDS011;1621;49.702;8.618;2023-04-30T06:48:58;9.70;;;8.23;;
3217;SDS011;1621;49.702;8.618;2023-04-30T06:51:24;10.53;;;8.00;;
3217;SDS011;1621;49.702;8.618;2023-04-30T06:53:52;10.30;;;8.87;;
3217;SDS011;1621;49.702;8.618;2023-04-30T06:56:19;9.47;;;8.10;;
3217;SDS011;1621;49.702;8.618;2023-04-30T06:58:45;12.20;;;8.50;;
3217;SDS011;1621;49.702;8.618;2023-04-30T07:01:14;13.57;;;9.20;;
3217;SDS011;1621;49.702;8.618;2023-04-30T07:03:40;11.83;;;7.70;;
3217;SDS011;1621;49.702;8.618;2023-04-30T07:06:07;12.77;;;8.23;;
3217;SDS011;1621;49.702;8.618;2023-04-30T07:08:33;9.67;;;8.40;;
3217;SDS011;1621;49.702;8.618;2023-04-30T07:11:00;10.10;;;7.87;;
3217;SDS011;1621;49.702;8.618;2023-04-30T07:13:27;9.77;;;8.20;;
3217;SDS011;1621;49.702;8.618;2023-04-30T07:15:53;12.87;;;7.97;;
3217;SDS011;1621;49.702;8.618;2023-04-30T07:18:19;9.63;;;7.33;;
3217;SDS011;1621;49.702;8.618;2023-04-30T07:20:45;8.97;;;7.60;;
3217;SDS011;1621;49.702;8.618;2023-04-30T07:23:12;9.60;;;7.93;;
3217;SDS011;1621;49.702;8.618;2023-04-30T07:25:38;12.83;;;7.27;;
3217;SDS011;1621;49.702;8.618;2023-04-30T07:28:06;11.13;;;7.03;;
3217;SDS011;1621;49.702;8.618;2023-04-30T07:30:32;10.10;;;7.70;;
3217;SDS011;1621;49.702;8.618;2023-04-30T07:32:58;10.07;;;7.43;;
3217;SDS011;1621;49.702;8.618;2023-04-30T07:35:25;9.10;;;7.00;;
3217;SDS011;1621;49.702;8.618;2023-04-30T07:37:51;10.40;;;7.73;;
3217;SDS011;1621;49.702;8.618;2023-04-30T07:40:17;10.73;;;7.23;;
3217;SDS011;1621;49.702;8.618;2023-04-30T07:42:43;13.60;;;8.03;;
3217;SDS011;1621;49.702;8.618;2023-04-30T07:45:11;7.90;;;7.10;;
3217;SDS011;1621;49.702;8.618;2023-04-30T07:47:38;10.00;;;7.30;;
3217;SDS011;1621;49.702;8.618;2023-04-30T07:50:04;12.93;;;6.63;;
3217;SDS011;1621;49.702;8.618;2023-04-30T07:52:31;9.73;;;6.70;;
3217;SDS011;1621;49.702;8.618;2023-04-30T07:54:57;10.77;;;6.20;;
3217;SDS011;1621;49.702;8.618;2023-04-30T07:57:23;13.07;;;6.17;;
3217;SDS011;1621;49.702;8.618;2023-04-30T07:59:50;8.73;;;6.30;;
3217;SDS011;1621;49.702;8.618;2023-04-30T08:02:18;9.93;;;6.67;;
3217;SDS011;1621;49.702;8.618;2023-04-30T08:04:44;8.37;;;5.73;;
3217;SDS011;1621;49.702;8.618;2023-04-30T08:07:11;6.90;;;5.70;;
3217;SDS011;1621;49.702;8.618;2023-04-30T08:09:39;9.20;;;6.27;;
3217;SDS011;1621;49.702;8.618;2023-04-30T08:12:05;8.90;;;6.20;;
3217;SDS011;1621;49.702;8.618;2023-04-30T08:14:32;7.23;;;5.47;;
3217;SDS011;1621;49.702;8.618;2023-04-30T08:16:58;8.10;;;5.70;;
3217;SDS011;1621;49.702;8.618;2023-04-30T08:19:26;7.27;;;5.27;;
3217;SDS011;1621;49.702;8.618;2023-04-30T08:21:52;8.70;;;5.70;;
3217;SDS011;1621;49.702;8.618;2023-04-30T08:24:18;10.60;;;6.63;;
3217;SDS011;1621;49.702;8.618;2023-04-30T08:26:45;9.37;;;5.67;;
3217;SDS011;1621;49.702;8.618;2023-04-30T08:29:11;9.07;;;4.60;;
3217;SDS011;1621;49.702;8.618;2023-04-30T08:31:37;9.00;;;6.00;;
3217;SDS011;1621;49.702;8.618;2023-04-30T08:34:04;7.33;;;4.50;;
3217;SDS011;1621;49.702;8.618;2023-04-30T08:36:32;7.20;;;5.53;;
3217;SDS011;1621;49.702;8.618;2023-04-30T08:38:58;11.73;;;5.10;;
3217;SDS011;1621;49.702;8.618;2023-04-30T08:41:26;5.77;;;4.53;;
3217;SDS011;1621;49.702;8.618;2023-04-30T08:43:53;5.73;;;3.90;;
3217;SDS011;1621;49.702;8.618;2023-04-30T08:46:21;5.43;;;3.80;;
3217;SDS011;1621;49.702;8.618;2023-04-30T08:48:48;6.03;;;4.10;;
3217;SDS011;1621;49.702;8.618;2023-04-30T08:51:14;8.57;;;3.97;;
3217;SDS011;1621;49.702;8.618;2023-04-30T08:53:42;4.33;;;3.30;;
3217;SDS011;1621;49.702;8.618;2023-04-30T08:56:09;4.37;;;3.07;;
3217;SDS011;1621;49.702;8.618;2023-04-30T08:58:36;4.90;;;3.60;;
3217;SDS011;1621;49.702;8.618;2023-04-30T09:01:02;5.17;;;2.90;;
3217;SDS011;1621;49.702;8.618;2023-04-30T09:03:31;6.00;;;3.50;;
3217;SDS011;1621;49.702;8.618;2023-04-30T09:05:58;9.90;;;3.30;;
3217;SDS011;1621;49.702;8.618;2023-04-30T09:08:40;6.60;;;3.40;;
3217;SDS011;1621;49.702;8.618;2023-04-30T09:11:20;14.53;;;3.47;;
3217;SDS011;1621;49.702;8.618;2023-04-30T09:13:48;7.93;;;3.00;;
3217;SDS011;1621;49.702;8.618;2023-04-30T09:16:14;4.97;;;2.80;;
3217;SDS011;1621;49.702;8.618;2023-04-30T09:18:41;6.50;;;3.03;;
3217;SDS011;1621;49.702;8.618;2023-04-30T09:21:07;5.13;;;2.80;;
3217;SDS011;1621;49.702;8.618;2023-04-30T09:23:33;4.30;;;3.10;;
3217;SDS011;1621;49.702;8.618;2023-04-30T09:25:59;5.33;;;3.40;;
3217;SDS011;1621;49.702;8.618;2023-04-30T09:28:27;4.90;;;2.83;;
3217;SDS011;1621;49.702;8.618;2023-04-30T09:30:55;3.60;;;2.23;;
3217;SDS011;1621;49.702;8.618;2023-04-30T09:33:21;4.47;;;2.40;;
3217;SDS011;1621;49.702;8.618;2023-04-30T09:35:47;4.23;;;2.23;;
3217;SDS011;1621;49.702;8.618;2023-04-30T09:38:27;4.60;;;2.60;;
3217;SDS011;1621;49.702;8.618;2023-04-30T09:40:54;4.00;;;2.70;;
3217;SDS011;1621;49.702;8.618;2023-04-30T09:43:20;4.73;;;2.10;;
3217;SDS011;1621;49.702;8.618;2023-04-30T09:45:48;3.60;;;2.40;;
3217;SDS011;1621;49.702;8.618;2023-04-30T09:48:15;3.97;;;2.37;;
3217;SDS011;1621;49.702;8.618;2023-04-30T09:50:42;4.60;;;2.03;;
3217;SDS011;1621;49.702;8.618;2023-04-30T09:53:09;5.90;;;2.27;;
3217;SDS011;1621;49.702;8.618;2023-04-30T09:55:37;5.80;;;2.80;;
3217;SDS011;1621;49.702;8.618;2023-04-30T09:58:05;4.13;;;2.77;;
3217;SDS011;1621;49.702;8.618;2023-04-30T10:00:32;5.43;;;2.37;;
3217;SDS011;1621;49.702;8.618;2023-04-30T10:03:01;4.40;;;2.43;;
3217;SDS011;1621;49.702;8.618;2023-04-30T10:05:29;3.60;;;1.83;;
3217;SDS011;1621;49.702;8.618;2023-04-30T10:07:56;5.50;;;2.47;;
3217;SDS011;1621;49.702;8.618;2023-04-30T10:10:23;6.97;;;2.50;;
3217;SDS011;1621;49.702;8.618;2023-04-30T10:12:50;3.60;;;1.80;;
3217;SDS011;1621;49.702;8.618;2023-04-30T10:15:19;8.43;;;2.40;;
3217;SDS011;1621;49.702;8.618;2023-04-30T10:17:49;3.23;;;1.83;;
3217;SDS011;1621;49.702;8.618;2023-04-30T10:20:16;2.50;;;1.70;;
3217;SDS011;1621;49.702;8.618;2023-04-30T10:22:44;3.80;;;1.70;;
3217;SDS011;1621;49.702;8.618;2023-04-30T10:25:12;3.17;;;1.73;;
3217;SDS011;1621;49.702;8.618;2023-04-30T10:27:38;2.90;;;1.70;;
3217;SDS011;1621;49.702;8.618;2023-04-30T10:30:05;4.33;;;1.90;;
3217;SDS011;1621;49.702;8.618;2023-04-30T10:32:35;3.00;;;1.73;;
3217;SDS011;1621;49.702;8.618;2023-04-30T10:35:05;2.70;;;1.80;;
3217;SDS011;1621;49.702;8.618;2023-04-30T10:37:35;2.93;;;1.40;;
3217;SDS011;1621;49.702;8.618;2023-04-30T10:40:05;3.57;;;1.70;;
3217;SDS011;1621;49.702;8.618;2023-04-30T10:42:33;4.17;;;1.83;;
3217;SDS011;1621;49.702;8.618;2023-04-30T10:45:00;3.57;;;1.60;;
3217;SDS011;1621;49.702;8.618;2023-04-30T10:47:27;4.13;;;1.77;;
3217;SDS011;1621;49.702;8.618;2023-04-30T10:50:00;3.40;;;1.73;;
3217;SDS011;1621;49.702;8.618;2023-04-30T10:52:27;3.87;;;1.70;;
3217;SDS011;1621;49.702;8.618;2023-04-30T10:54:55;3.63;;;1.63;;
3217;SDS011;1621;49.702;8.618;2023-04-30T10:57:21;2.70;;;1.60;;
3217;SDS011;1621;49.702;8.618;2023-04-30T10:59:52;2.90;;;1.23;;
3217;SDS011;1621;49.702;8.618;2023-04-30T11:02:19;3.53;;;1.53;;
3217;SDS011;1621;49.702;8.618;2023-04-30T11:07:33;3.80;;;1.43;;
3217;SDS011;1621;49.702;8.618;2023-04-30T11:10:01;3.17;;;1.77;;
3217;SDS011;1621;49.702;8.618;2023-04-30T11:12:28;2.60;;;1.60;;
3217;SDS011;1621;49.702;8.618;2023-04-30T11:14:59;2.63;;;1.53;;
3217;SDS011;1621;49.702;8.618;2023-04-30T11:17:26;2.93;;;1.30;;
3217;SDS011;1621;49.702;8.618;2023-04-30T11:19:52;5.90;;;1.93;;
3217;SDS011;1621;49.702;8.618;2023-04-30T11:22:20;2.70;;;1.47;;
3217;SDS011;1621;49.702;8.618;2023-04-30T11:24:53;3.30;;;1.80;;
3217;SDS011;1621;49.702;8.618;2023-04-30T11:27:22;3.97;;;1.60;;
3217;SDS011;1621;49.702;8.618;2023-04-30T11:29:49;3.07;;;1.50;;
3217;SDS011;1621;49.702;8.618;2023-04-30T11:32:16;3.33;;;1.67;;
3217;SDS011;1621;49.702;8.618;2023-04-30T11:34:43;3.50;;;1.63;;
3217;SDS011;1621;49.702;8.618;2023-04-30T11:37:10;2.20;;;1.20;;
3217;SDS011;1621;49.702;8.618;2023-04-30T11:39:37;2.43;;;1.50;;
3217;SDS011;1621;49.702;8.618;2023-04-30T11:42:05;3.13;;;1.80;;
3217;SDS011;1621;49.702;8.618;2023-04-30T11:44:33;2.87;;;1.40;;
3217;SDS011;1621;49.702;8.618;2023-04-30T11:46:59;2.73;;;1.40;;
3217;SDS011;1621;49.702;8.618;2023-04-30T11:49:25;3.13;;;1.60;;
3217;SDS011;1621;49.702;8.618;2023-04-30T11:51:52;2.67;;;1.40;;
3217;SDS011;1621;49.702;8.618;2023-04-30T11:54:18;3.00;;;1.33;;
3217;SDS011;1621;49.702;8.618;2023-04-30T11:56:44;2.20;;;1.23;;
3217;SDS011;1621;49.702;8.618;2023-04-30T11:59:12;2.40;;;1.50;;
3217;SDS011;1621;49.702;8.618;2023-04-30T12:01:40;2.60;;;1.60;;
3217;SDS011;1621;49.702;8.618;2023-04-30T12:04:06;2.63;;;1.63;;
3217;SDS011;1621;49.702;8.618;2023-04-30T12:06:33;4.67;;;1.37;;
3217;SDS011;1621;49.702;8.618;2023-04-30T12:09:00;2.70;;;1.57;;
3217;SDS011;1621;49.702;8.618;2023-04-30T12:11:29;3.23;;;1.47;;
3217;SDS011;1621;49.702;8.618;2023-04-30T12:13:56;2.30;;;1.40;;
3217;SDS011;1621;49.702;8.618;2023-04-30T12:16:23;2.00;;;1.30;;
3217;SDS011;1621;49.702;8.618;2023-04-30T12:18:51;2.73;;;1.80;;
3217;SDS011;1621;49.702;8.618;2023-04-30T12:21:17;2.63;;;1.50;;
3217;SDS011;1621;49.702;8.618;2023-04-30T12:23:43;2.00;;;1.23;;
3217;SDS011;1621;49.702;8.618;2023-04-30T12:26:10;2.77;;;1.23;;
3217;SDS011;1621;49.702;8.618;2023-04-30T12:28:36;2.67;;;1.70;;
3217;SDS011;1621;49.702;8.618;2023-04-30T12:31:02;2.40;;;1.30;;
3217;SDS011;1621;49.702;8.618;2023-04-30T12:33:30;3.50;;;1.47;;
3217;SDS011;1621;49.702;8.618;2023-04-30T12:35:58;2.10;;;1.30;;
3217;SDS011;1621;49.702;8.618;2023-04-30T12:38:24;3.37;;;1.60;;
3217;SDS011;1621;49.702;8.618;2023-04-30T12:40:50;6.40;;;1.40;;
3217;SDS011;1621;49.702;8.618;2023-04-30T12:43:17;2.40;;;1.40;;
3217;SDS011;1621;49.702;8.618;2023-04-30T12:45:47;1.80;;;1.10;;
3217;SDS011;1621;49.702;8.618;2023-04-30T12:48:15;2.90;;;1.80;;
3217;SDS011;1621;49.702;8.618;2023-04-30T12:50:45;2.73;;;1.43;;
3217;SDS011;1621;49.702;8.618;2023-04-30T12:53:13;2.10;;;1.30;;
3217;SDS011;1621;49.702;8.618;2023-04-30T12:55:39;5.03;;;1.50;;
3217;SDS011;1621;49.702;8.618;2023-04-30T12:58:06;1.90;;;1.30;;
3217;SDS011;1621;49.702;8.618;2023-04-30T13:00:41;3.43;;;1.40;;
3217;SDS011;1621;49.702;8.618;2023-04-30T13:03:08;6.53;;;2.07;;
3217;SDS011;1621;49.702;8.618;2023-04-30T13:05:34;2.53;;;1.17;;
3217;SDS011;1621;49.702;8.618;2023-04-30T13:08:00;3.93;;;1.30;;
3217;SDS011;1621;49.702;8.618;2023-04-30T13:10:28;3.30;;;1.30;;
3217;SDS011;1621;49.702;8.618;2023-04-30T13:12:55;4.57;;;1.50;;
3217;SDS011;1621;49.702;8.618;2023-04-30T13:15:21;2.20;;;1.30;;
3217;SDS011;1621;49.702;8.618;2023-04-30T13:17:47;2.20;;;1.27;;
3217;SDS011;1621;49.702;8.618;2023-04-30T13:20:14;3.63;;;1.53;;
3217;SDS011;1621;49.702;8.618;2023-04-30T13:22:40;3.73;;;1.50;;
3217;SDS011;1621;49.702;8.618;2023-04-30T13:25:07;2.13;;;1.27;;
3217;SDS011;1621;49.702;8.618;2023-04-30T13:27:35;2.40;;;1.30;;
3217;SDS011;1621;49.702;8.618;2023-04-30T13:30:01;2.73;;;1.30;;
3217;SDS011;1621;49.702;8.618;2023-04-30T13:32:27;3.07;;;1.30;;
3217;SDS011;1621;49.702;8.618;2023-04-30T13:34:54;4.90;;;1.43;;
3217;SDS011;1621;49.702;8.618;2023-04-30T13:37:20;2.20;;;1.20;;
3217;SDS011;1621;49.702;8.618;2023-04-30T13:39:46;1.90;;;1.10;;
3217;SDS011;1621;49.702;8.618;2023-04-30T13:42:13;3.30;;;1.40;;
3217;SDS011;1621;49.702;8.618;2023-04-30T13:44:41;3.73;;;1.40;;
3217;SDS011;1621;49.702;8.618;2023-04-30T13:47:09;3.47;;;1.40;;
3217;SDS011;1621;49.702;8.618;2023-04-30T13:49:35;2.30;;;1.20;;
3217;SDS011;1621;49.702;8.618;2023-04-30T13:52:02;2.47;;;1.37;;
3217;SDS011;1621;49.702;8.618;2023-04-30T13:54:28;3.13;;;1.20;;
3217;SDS011;1621;49.702;8.618;2023-04-30T13:56:54;2.40;;;1.37;;
3217;SDS011;1621;49.702;8.618;2023-04-30T13:59:21;2.13;;;1.40;;
3217;SDS011;1621;49.702;8.618;2023-04-30T14:01:48;2.30;;;1.10;;
3217;SDS011;1621;49.702;8.618;2023-04-30T14:04:14;9.77;;;1.50;;
3217;SDS011;1621;49.702;8.618;2023-04-30T14:06:41;2.20;;;1.20;;
3217;SDS011;1621;49.702;8.618;2023-04-30T14:09:07;1.90;;;1.03;;
3217;SDS011;1621;49.702;8.618;2023-04-30T14:11:33;2.10;;;1.23;;
3217;SDS011;1621;49.702;8.618;2023-04-30T14:14:00;7.87;;;1.33;;
3217;SDS011;1621;49.702;8.618;2023-04-30T14:16:26;6.90;;;1.00;;
3217;SDS011;1621;49.702;8.618;2023-04-30T14:18:54;2.00;;;1.10;;
3217;SDS011;1621;49.702;8.618;2023-04-30T14:21:20;4.20;;;1.37;;
3217;SDS011;1621;49.702;8.618;2023-04-30T14:23:46;2.10;;;1.30;;
3217;SDS011;1621;49.702;8.618;2023-04-30T14:26:13;3.33;;;1.20;;
3217;SDS011;1621;49.702;8.618;2023-04-30T14:28:39;2.57;;;1.20;;
3217;SDS011;1621;49.702;8.618;2023-04-30T14:31:06;1.90;;;0.90;;
3217;SDS011;1621;49.702;8.618;2023-04-30T14:33:32;3.67;;;1.30;;
3217;SDS011;1621;49.702;8.618;2023-04-30T14:35:59;2.10;;;1.10;;
3217;SDS011;1621;49.702;8.618;2023-04-30T14:38:26;2.07;;;1.13;;
3217;SDS011;1621;49.702;8.618;2023-04-30T14:40:52;2.33;;;1.03;;
3217;SDS011;1621;49.702;8.618;2023-04-30T14:43:18;2.10;;;1.20;;
3217;SDS011;1621;49.702;8.618;2023-04-30T14:45:45;2.30;;;1.13;;
3217;SDS011;1621;49.702;8.618;2023-04-30T14:48:11;1.90;;;0.80;;
3217;SDS011;1621;49.702;8.618;2023-04-30T14:50:37;2.40;;;1.20;;
3217;SDS011;1621;49.702;8.618;2023-04-30T14:53:05;2.60;;;1.40;;
3217;SDS011;1621;49.702;8.618;2023-04-30T14:55:33;1.73;;;0.90;;
3217;SDS011;1621;49.702;8.618;2023-04-30T14:57:59;2.27;;;1.10;;
3217;SDS011;1621;49.702;8.618;2023-04-30T15:00:26;2.13;;;1.20;;
3217;SDS011;1621;49.702;8.618;2023-04-30T15:02:53;1.70;;;0.90;;
3217;SDS011;1621;49.702;8.618;2023-04-30T15:05:19;2.20;;;1.20;;
3217;SDS011;1621;49.702;8.618;2023-04-30T15:07:46;2.50;;;1.00;;